sensor_id;sensor_type;location;lat;lon;timestamp;temperature;humidity
23783;DHT22;12071;50.850;4.446;2022-07-29T00:01:49;20.00;1.00
23783;DHT22;12071;50.850;4.446;2022-07-29T00:04:14;19.80;1.00
23783;DHT22;12071;50.850;4.446;2022-07-29T00:06:40;19.80;1.00
23783;DHT22;12071;50.850;4.446;2022-07-29T00:09:06;19.80;99.90
23783;DHT22;12071;50.850;4.446;2022-07-29T00:11:32;19.80;1.00
23783;DHT22;12071;50.850;4.446;2022-07-29T00:13:58;19.50;1.00
23783;DHT22;12071;50.850;4.446;2022-07-29T00:16:23;19.40;86.10
23783;DHT22;12071;50.850;4.446;2022-07-29T00:18:49;19.40;99.90
23783;DHT22;12071;50.850;4.446;2022-07-29T00:21:15;19.50;75.20
23783;DHT22;12071;50.850;4.446;2022-07-29T00:23:40;19.50;99.90
23783;DHT22;12071;50.850;4.446;2022-07-29T00:26:06;19.60;32.60
23783;DHT22;12071;50.850;4.446;2022-07-29T00:28:32;19.60;91.60
23783;DHT22;12071;50.850;4.446;2022-07-29T00:30:58;19.70;1.00
23783;DHT22;12071;50.850;4.446;2022-07-29T00:33:23;19.70;59.70
23783;DHT22;12071;50.850;4.446;2022-07-29T00:35:49;19.90;28.40
23783;DHT22;12071;50.850;4.446;2022-07-29T00:38:17;19.90;1.00
23783;DHT22;12071;50.850;4.446;2022-07-29T00:40:43;19.60;6.80
23783;DHT22;12071;50.850;4.446;2022-07-29T00:43:10;19.50;99.90
23783;DHT22;12071;50.850;4.446;2022-07-29T00:45:35;19.60;99.90
23783;DHT22;12071;50.850;4.446;2022-07-29T00:48:02;19.70;99.90
23783;DHT22;12071;50.850;4.446;2022-07-29T00:50:28;19.40;99.90
23783;DHT22;12071;50.850;4.446;2022-07-29T00:52:54;19.50;99.90
23783;DHT22;12071;50.850;4.446;2022-07-29T00:55:20;19.20;99.90
23783;DHT22;12071;50.850;4.446;2022-07-29T00:57:47;19.30;99.90
23783;DHT22;12071;50.850;4.446;2022-07-29T01:00:23;19.00;99.90
23783;DHT22;12071;50.850;4.446;2022-07-29T01:02:50;19.00;99.90
23783;DHT22;12071;50.850;4.446;2022-07-29T01:05:24;19.10;99.90
23783;DHT22;12071;50.850;4.446;2022-07-29T01:07:54;19.10;99.90
23783;DHT22;12071;50.850;4.446;2022-07-29T01:10:20;19.20;99.90
23783;DHT22;12071;50.850;4.446;2022-07-29T01:12:48;19.20;99.90
23783;DHT22;12071;50.850;4.446;2022-07-29T01:15:14;19.10;99.90
23783;DHT22;12071;50.850;4.446;2022-07-29T01:32:24;18.80;1.00
23783;DHT22;12071;50.850;4.446;2022-07-29T01:34:21;18.80;1.00
23783;DHT22;12071;50.850;4.446;2022-07-29T01:37:03;18.80;8.40
23783;DHT22;12071;50.850;4.446;2022-07-29T01:39:32;18.90;11.60
23783;DHT22;12071;50.850;4.446;2022-07-29T01:45:08;18.50;99.90
23783;DHT22;12071;50.850;4.446;2022-07-29T01:47:50;18.40;99.90
23783;DHT22;12071;50.850;4.446;2022-07-29T01:50:20;18.60;99.90
23783;DHT22;12071;50.850;4.446;2022-07-29T01:53:08;18.80;99.90
23783;DHT22;12071;50.850;4.446;2022-07-29T01:55:38;18.90;99.90
23783;DHT22;12071;50.850;4.446;2022-07-29T01:58:05;18.80;99.90
23783;DHT22;12071;50.850;4.446;2022-07-29T02:00:33;18.70;99.90
23783;DHT22;12071;50.850;4.446;2022-07-29T02:03:02;18.70;99.90
23783;DHT22;12071;50.850;4.446;2022-07-29T02:05:30;18.40;99.90
23783;DHT22;12071;50.850;4.446;2022-07-29T02:07:59;18.30;99.90
23783;DHT22;12071;50.850;4.446;2022-07-29T02:10:28;18.50;99.90
23783;DHT22;12071;50.850;4.446;2022-07-29T02:12:56;18.40;99.90
23783;DHT22;12071;50.850;4.446;2022-07-29T02:15:26;18.40;99.90
23783;DHT22;12071;50.850;4.446;2022-07-29T02:18:00;18.40;99.90
23783;DHT22;12071;50.850;4.446;2022-07-29T02:20:27;18.20;99.90
23783;DHT22;12071;50.850;4.446;2022-07-29T02:22:54;18.30;99.90
23783;DHT22;12071;50.850;4.446;2022-07-29T02:25:22;18.20;99.90
23783;DHT22;12071;50.850;4.446;2022-07-29T02:27:50;18.10;99.90
23783;DHT22;12071;50.850;4.446;2022-07-29T02:30:17;17.90;99.90
23783;DHT22;12071;50.850;4.446;2022-07-29T02:32:45;17.80;99.90
23783;DHT22;12071;50.850;4.446;2022-07-29T02:35:13;17.60;1.00
23783;DHT22;12071;50.850;4.446;2022-07-29T02:37:40;17.60;1.00
23783;DHT22;12071;50.850;4.446;2022-07-29T02:40:09;17.50;1.00
23783;DHT22;12071;50.850;4.446;2022-07-29T02:42:37;17.50;1.00
23783;DHT22;12071;50.850;4.446;2022-07-29T02:45:05;17.60;1.00
23783;DHT22;12071;50.850;4.446;2022-07-29T02:47:36;17.70;1.00
23783;DHT22;12071;50.850;4.446;2022-07-29T02:52:47;17.60;1.00
23783;DHT22;12071;50.850;4.446;2022-07-29T02:55:30;17.50;1.00
23783;DHT22;12071;50.850;4.446;2022-07-29T02:58:24;17.50;1.00
23783;DHT22;12071;50.850;4.446;2022-07-29T03:01:24;17.70;1.00
23783;DHT22;12071;50.850;4.446;2022-07-29T03:03:53;17.80;1.00
23783;DHT22;12071;50.850;4.446;2022-07-29T03:06:21;17.80;1.00
23783;DHT22;12071;50.850;4.446;2022-07-29T03:08:48;17.60;1.00
23783;DHT22;12071;50.850;4.446;2022-07-29T03:11:15;17.50;1.00
23783;DHT22;12071;50.850;4.446;2022-07-29T03:13:41;17.50;1.00
23783;DHT22;12071;50.850;4.446;2022-07-29T03:16:08;17.40;1.00
23783;DHT22;12071;50.850;4.446;2022-07-29T03:18:34;17.30;1.00
23783;DHT22;12071;50.850;4.446;2022-07-29T03:21:00;17.20;1.00
23783;DHT22;12071;50.850;4.446;2022-07-29T03:23:26;17.20;12.40
23783;DHT22;12071;50.850;4.446;2022-07-29T03:25:53;17.30;17.50
23783;DHT22;12071;50.850;4.446;2022-07-29T03:28:19;17.50;1.00
23783;DHT22;12071;50.850;4.446;2022-07-29T03:30:45;17.30;1.00
23783;DHT22;12071;50.850;4.446;2022-07-29T03:33:11;17.30;1.00
23783;DHT22;12071;50.850;4.446;2022-07-29T03:35:37;17.10;12.90
23783;DHT22;12071;50.850;4.446;2022-07-29T03:38:02;17.00;53.20
23783;DHT22;12071;50.850;4.446;2022-07-29T03:40:56;17.00;83.20
23783;DHT22;12071;50.850;4.446;2022-07-29T03:43:25;17.00;81.90
23783;DHT22;12071;50.850;4.446;2022-07-29T03:45:54;17.20;46.30
23783;DHT22;12071;50.850;4.446;2022-07-29T03:48:22;17.10;38.00
23783;DHT22;12071;50.850;4.446;2022-07-29T03:50:50;17.10;43.40
23783;DHT22;12071;50.850;4.446;2022-07-29T03:53:16;17.20;30.60
23783;DHT22;12071;50.850;4.446;2022-07-29T03:55:48;17.30;17.10
23783;DHT22;12071;50.850;4.446;2022-07-29T03:58:16;17.20;29.80
23783;DHT22;12071;50.850;4.446;2022-07-29T04:00:44;17.00;66.80
23783;DHT22;12071;50.850;4.446;2022-07-29T04:03:10;17.10;70.50
23783;DHT22;12071;50.850;4.446;2022-07-29T04:05:36;16.90;99.90
23783;DHT22;12071;50.850;4.446;2022-07-29T04:08:02;16.70;99.90
23783;DHT22;12071;50.850;4.446;2022-07-29T04:10:27;16.50;99.90
23783;DHT22;12071;50.850;4.446;2022-07-29T04:12:53;16.50;99.90
23783;DHT22;12071;50.850;4.446;2022-07-29T04:15:19;16.60;99.90
23783;DHT22;12071;50.850;4.446;2022-07-29T04:17:44;16.60;99.90
23783;DHT22;12071;50.850;4.446;2022-07-29T04:20:10;16.60;99.90
23783;DHT22;12071;50.850;4.446;2022-07-29T04:22:39;16.70;99.90
23783;DHT22;12071;50.850;4.446;2022-07-29T04:25:04;16.60;99.90
23783;DHT22;12071;50.850;4.446;2022-07-29T04:27:30;16.60;99.90
23783;DHT22;12071;50.850;4.446;2022-07-29T04:29:56;16.70;99.90
23783;DHT22;12071;50.850;4.446;2022-07-29T04:32:21;16.80;99.90
23783;DHT22;12071;50.850;4.446;2022-07-29T04:34:47;16.80;99.90
23783;DHT22;12071;50.850;4.446;2022-07-29T04:37:13;16.60;99.90
23783;DHT22;12071;50.850;4.446;2022-07-29T04:39:38;16.60;99.90
23783;DHT22;12071;50.850;4.446;2022-07-29T04:42:04;16.50;99.90
23783;DHT22;12071;50.850;4.446;2022-07-29T04:44:30;16.50;99.90
23783;DHT22;12071;50.850;4.446;2022-07-29T04:46:56;16.60;99.90
23783;DHT22;12071;50.850;4.446;2022-07-29T04:49:22;16.50;99.90
23783;DHT22;12071;50.850;4.446;2022-07-29T04:51:48;16.60;99.90
23783;DHT22;12071;50.850;4.446;2022-07-29T04:54:14;16.50;99.90
23783;DHT22;12071;50.850;4.446;2022-07-29T04:56:39;16.30;99.90
23783;DHT22;12071;50.850;4.446;2022-07-29T04:59:05;16.60;99.90
23783;DHT22;12071;50.850;4.446;2022-07-29T05:01:30;16.60;99.90
23783;DHT22;12071;50.850;4.446;2022-07-29T05:03:56;16.60;99.90
23783;DHT22;12071;50.850;4.446;2022-07-29T05:06:21;16.70;99.90
23783;DHT22;12071;50.850;4.446;2022-07-29T05:08:47;16.70;99.90
23783;DHT22;12071;50.850;4.446;2022-07-29T05:11:13;16.70;99.90
23783;DHT22;12071;50.850;4.446;2022-07-29T05:13:39;16.60;99.90
23783;DHT22;12071;50.850;4.446;2022-07-29T05:16:04;16.60;99.90
23783;DHT22;12071;50.850;4.446;2022-07-29T05:18:30;16.50;99.90
23783;DHT22;12071;50.850;4.446;2022-07-29T05:20:57;16.50;99.90
23783;DHT22;12071;50.850;4.446;2022-07-29T05:23:23;16.70;99.90
23783;DHT22;12071;50.850;4.446;2022-07-29T05:25:48;16.70;99.90
23783;DHT22;12071;50.850;4.446;2022-07-29T05:28:15;16.80;99.90
23783;DHT22;12071;50.850;4.446;2022-07-29T05:30:41;17.00;99.90
23783;DHT22;12071;50.850;4.446;2022-07-29T05:33:07;17.10;99.90
23783;DHT22;12071;50.850;4.446;2022-07-29T05:35:33;17.20;99.90
23783;DHT22;12071;50.850;4.446;2022-07-29T05:38:00;17.30;99.90
23783;DHT22;12071;50.850;4.446;2022-07-29T05:40:26;17.50;99.90
23783;DHT22;12071;50.850;4.446;2022-07-29T05:42:51;17.50;99.90
23783;DHT22;12071;50.850;4.446;2022-07-29T05:45:20;17.70;99.90
23783;DHT22;12071;50.850;4.446;2022-07-29T05:47:45;17.80;99.90
23783;DHT22;12071;50.850;4.446;2022-07-29T05:50:12;17.60;99.90
23783;DHT22;12071;50.850;4.446;2022-07-29T05:52:37;17.40;99.90
23783;DHT22;12071;50.850;4.446;2022-07-29T05:55:04;17.50;99.90
23783;DHT22;12071;50.850;4.446;2022-07-29T05:57:31;17.40;99.90
23783;DHT22;12071;50.850;4.446;2022-07-29T05:59:56;17.70;99.90
23783;DHT22;12071;50.850;4.446;2022-07-29T06:02:22;18.10;99.90
23783;DHT22;12071;50.850;4.446;2022-07-29T06:04:48;18.10;99.90
23783;DHT22;12071;50.850;4.446;2022-07-29T06:07:14;17.90;99.90
23783;DHT22;12071;50.850;4.446;2022-07-29T06:09:41;18.00;99.90
23783;DHT22;12071;50.850;4.446;2022-07-29T06:12:07;18.00;99.90
23783;DHT22;12071;50.850;4.446;2022-07-29T06:14:33;18.30;99.90
23783;DHT22;12071;50.850;4.446;2022-07-29T06:16:59;18.20;99.90
23783;DHT22;12071;50.850;4.446;2022-07-29T06:19:24;18.10;99.90
23783;DHT22;12071;50.850;4.446;2022-07-29T06:21:51;18.00;99.90
23783;DHT22;12071;50.850;4.446;2022-07-29T06:24:16;18.30;99.90
23783;DHT22;12071;50.850;4.446;2022-07-29T06:26:42;18.10;99.90
23783;DHT22;12071;50.850;4.446;2022-07-29T06:29:09;18.10;99.90
23783;DHT22;12071;50.850;4.446;2022-07-29T06:31:36;18.20;99.90
23783;DHT22;12071;50.850;4.446;2022-07-29T06:34:02;18.30;99.90
23783;DHT22;12071;50.850;4.446;2022-07-29T06:36:27;18.50;52.60
23783;DHT22;12071;50.850;4.446;2022-07-29T06:38:53;18.70;1.00
23783;DHT22;12071;50.850;4.446;2022-07-29T06:41:18;18.70;12.30
23783;DHT22;12071;50.850;4.446;2022-07-29T06:43:45;18.80;32.30
23783;DHT22;12071;50.850;4.446;2022-07-29T06:46:13;19.10;1.00
23783;DHT22;12071;50.850;4.446;2022-07-29T06:48:41;18.70;43.20
23783;DHT22;12071;50.850;4.446;2022-07-29T06:51:08;18.80;70.00
23783;DHT22;12071;50.850;4.446;2022-07-29T06:53:35;18.70;1.00
23783;DHT22;12071;50.850;4.446;2022-07-29T06:56:02;18.60;1.00
23783;DHT22;12071;50.850;4.446;2022-07-29T06:58:28;18.80;13.10
23783;DHT22;12071;50.850;4.446;2022-07-29T07:00:55;18.60;12.70
23783;DHT22;12071;50.850;4.446;2022-07-29T07:03:21;18.70;32.90
23783;DHT22;12071;50.850;4.446;2022-07-29T07:05:46;18.70;1.00
23783;DHT22;12071;50.850;4.446;2022-07-29T07:08:13;18.90;1.00
23783;DHT22;12071;50.850;4.446;2022-07-29T07:10:39;19.00;1.00
23783;DHT22;12071;50.850;4.446;2022-07-29T07:13:05;19.30;1.00
23783;DHT22;12071;50.850;4.446;2022-07-29T07:15:31;19.60;1.00
23783;DHT22;12071;50.850;4.446;2022-07-29T07:17:57;19.70;1.00
23783;DHT22;12071;50.850;4.446;2022-07-29T07:20:24;20.00;99.90
23783;DHT22;12071;50.850;4.446;2022-07-29T07:22:49;20.10;99.90
23783;DHT22;12071;50.850;4.446;2022-07-29T07:25:15;20.30;99.90
23783;DHT22;12071;50.850;4.446;2022-07-29T07:27:43;20.20;99.90
23783;DHT22;12071;50.850;4.446;2022-07-29T07:30:09;20.40;99.90
23783;DHT22;12071;50.850;4.446;2022-07-29T07:32:35;20.40;99.90
23783;DHT22;12071;50.850;4.446;2022-07-29T07:35:02;20.50;3.50
23783;DHT22;12071;50.850;4.446;2022-07-29T07:37:28;20.40;1.00
23783;DHT22;12071;50.850;4.446;2022-07-29T07:39:54;20.50;1.00
23783;DHT22;12071;50.850;4.446;2022-07-29T07:42:19;20.50;13.40
23783;DHT22;12071;50.850;4.446;2022-07-29T07:44:45;20.70;1.00
23783;DHT22;12071;50.850;4.446;2022-07-29T07:47:12;20.30;1.00
23783;DHT22;12071;50.850;4.446;2022-07-29T07:49:38;20.50;1.00
23783;DHT22;12071;50.850;4.446;2022-07-29T07:52:04;20.10;41.00
23783;DHT22;12071;50.850;4.446;2022-07-29T07:54:30;20.00;99.90
23783;DHT22;12071;50.850;4.446;2022-07-29T07:56:56;19.60;99.90
23783;DHT22;12071;50.850;4.446;2022-07-29T07:59:22;19.80;99.90
23783;DHT22;12071;50.850;4.446;2022-07-29T08:01:48;19.90;99.90
23783;DHT22;12071;50.850;4.446;2022-07-29T08:04:13;19.90;99.90
23783;DHT22;12071;50.850;4.446;2022-07-29T08:06:39;20.00;99.90
23783;DHT22;12071;50.850;4.446;2022-07-29T08:09:05;19.80;99.90
23783;DHT22;12071;50.850;4.446;2022-07-29T08:11:31;19.70;99.90
23783;DHT22;12071;50.850;4.446;2022-07-29T08:13:57;19.70;99.90
23783;DHT22;12071;50.850;4.446;2022-07-29T08:16:23;19.90;99.90
23783;DHT22;12071;50.850;4.446;2022-07-29T08:18:50;19.90;99.90
23783;DHT22;12071;50.850;4.446;2022-07-29T08:21:17;19.90;99.90
23783;DHT22;12071;50.850;4.446;2022-07-29T08:23:45;20.00;99.90
23783;DHT22;12071;50.850;4.446;2022-07-29T08:26:14;19.90;99.90
23783;DHT22;12071;50.850;4.446;2022-07-29T08:28:41;20.20;99.90
23783;DHT22;12071;50.850;4.446;2022-07-29T08:31:10;20.10;99.90
23783;DHT22;12071;50.850;4.446;2022-07-29T08:33:35;20.20;93.30
23783;DHT22;12071;50.850;4.446;2022-07-29T08:36:01;20.00;99.90
23783;DHT22;12071;50.850;4.446;2022-07-29T08:38:26;20.20;99.90
23783;DHT22;12071;50.850;4.446;2022-07-29T08:40:53;20.50;99.90
23783;DHT22;12071;50.850;4.446;2022-07-29T08:43:19;20.80;70.10
23783;DHT22;12071;50.850;4.446;2022-07-29T08:45:47;20.90;3.20
23783;DHT22;12071;50.850;4.446;2022-07-29T08:48:17;21.00;1.00
23783;DHT22;12071;50.850;4.446;2022-07-29T08:50:44;21.30;1.00
23783;DHT22;12071;50.850;4.446;2022-07-29T08:53:15;21.40;1.00
23783;DHT22;12071;50.850;4.446;2022-07-29T08:55:46;21.40;99.90
23783;DHT22;12071;50.850;4.446;2022-07-29T08:58:14;21.70;99.90
23783;DHT22;12071;50.850;4.446;2022-07-29T09:00:45;21.70;99.90
23783;DHT22;12071;50.850;4.446;2022-07-29T09:03:15;21.90;99.90
23783;DHT22;12071;50.850;4.446;2022-07-29T09:05:44;21.80;24.20
23783;DHT22;12071;50.850;4.446;2022-07-29T09:08:12;21.60;99.90
23783;DHT22;12071;50.850;4.446;2022-07-29T09:10:38;21.50;99.90
23783;DHT22;12071;50.850;4.446;2022-07-29T09:13:03;21.70;99.90
23783;DHT22;12071;50.850;4.446;2022-07-29T09:15:29;21.70;99.90
23783;DHT22;12071;50.850;4.446;2022-07-29T09:17:55;22.00;99.90
23783;DHT22;12071;50.850;4.446;2022-07-29T09:20:22;21.90;99.90
23783;DHT22;12071;50.850;4.446;2022-07-29T09:22:49;21.90;1.00
23783;DHT22;12071;50.850;4.446;2022-07-29T09:25:38;22.00;99.90
23783;DHT22;12071;50.850;4.446;2022-07-29T09:28:09;22.40;99.90
23783;DHT22;12071;50.850;4.446;2022-07-29T09:30:38;22.40;18.70
23783;DHT22;12071;50.850;4.446;2022-07-29T09:33:14;22.20;1.00
23783;DHT22;12071;50.850;4.446;2022-07-29T09:35:40;22.40;1.00
23783;DHT22;12071;50.850;4.446;2022-07-29T09:38:12;22.70;45.50
23783;DHT22;12071;50.850;4.446;2022-07-29T09:40:38;22.90;99.90
23783;DHT22;12071;50.850;4.446;2022-07-29T09:43:12;23.10;99.90
23783;DHT22;12071;50.850;4.446;2022-07-29T09:45:38;23.20;99.90
23783;DHT22;12071;50.850;4.446;2022-07-29T09:48:20;23.10;99.90
23783;DHT22;12071;50.850;4.446;2022-07-29T09:50:49;23.40;99.90
23783;DHT22;12071;50.850;4.446;2022-07-29T09:53:35;23.40;99.90
23783;DHT22;12071;50.850;4.446;2022-07-29T09:56:02;23.50;99.90
23783;DHT22;12071;50.850;4.446;2022-07-29T09:58:27;23.60;99.90
23783;DHT22;12071;50.850;4.446;2022-07-29T10:00:54;23.50;99.90
23783;DHT22;12071;50.850;4.446;2022-07-29T10:03:21;23.40;99.90
23783;DHT22;12071;50.850;4.446;2022-07-29T10:06:05;23.60;1.00
23783;DHT22;12071;50.850;4.446;2022-07-29T10:08:31;24.20;99.90
23783;DHT22;12071;50.850;4.446;2022-07-29T10:11:18;24.20;1.00
23783;DHT22;12071;50.850;4.446;2022-07-29T10:13:46;24.40;94.70
23783;DHT22;12071;50.850;4.446;2022-07-29T10:16:14;24.20;99.90
23783;DHT22;12071;50.850;4.446;2022-07-29T10:18:41;24.20;1.00
23783;DHT22;12071;50.850;4.446;2022-07-29T10:21:07;23.90;1.00
23783;DHT22;12071;50.850;4.446;2022-07-29T10:23:33;24.30;99.90
23783;DHT22;12071;50.850;4.446;2022-07-29T10:25:59;24.20;99.90
23783;DHT22;12071;50.850;4.446;2022-07-29T10:28:25;24.20;99.90
23783;DHT22;12071;50.850;4.446;2022-07-29T10:30:52;24.60;99.90
23783;DHT22;12071;50.850;4.446;2022-07-29T10:36:56;24.90;1.00
23783;DHT22;12071;50.850;4.446;2022-07-29T10:39:46;24.60;99.90
23783;DHT22;12071;50.850;4.446;2022-07-29T10:42:25;25.00;99.90
23783;DHT22;12071;50.850;4.446;2022-07-29T10:44:51;25.40;99.90
23783;DHT22;12071;50.850;4.446;2022-07-29T10:47:21;25.80;99.90
23783;DHT22;12071;50.850;4.446;2022-07-29T10:50:01;26.20;99.90
23783;DHT22;12071;50.850;4.446;2022-07-29T10:55:38;26.60;85.90
23783;DHT22;12071;50.850;4.446;2022-07-29T11:00:44;25.70;99.90
23783;DHT22;12071;50.850;4.446;2022-07-29T11:06:05;26.00;1.00
23783;DHT22;12071;50.850;4.446;2022-07-29T11:08:31;25.90;99.90
23783;DHT22;12071;50.850;4.446;2022-07-29T11:16:11;25.60;80.20
23783;DHT22;12071;50.850;4.446;2022-07-29T11:21:40;26.10;1.00
23783;DHT22;12071;50.850;4.446;2022-07-29T11:26:38;26.00;1.00
23783;DHT22;12071;50.850;4.446;2022-07-29T11:29:13;26.30;99.90
23783;DHT22;12071;50.850;4.446;2022-07-29T11:31:44;26.30;99.90
23783;DHT22;12071;50.850;4.446;2022-07-29T11:34:31;26.00;99.90
23783;DHT22;12071;50.850;4.446;2022-07-29T11:47:41;26.00;99.90
23783;DHT22;12071;50.850;4.446;2022-07-29T11:50:12;26.60;99.90
23783;DHT22;12071;50.850;4.446;2022-07-29T11:52:44;26.70;99.90
23783;DHT22;12071;50.850;4.446;2022-07-29T11:57:50;27.10;99.90
23783;DHT22;12071;50.850;4.446;2022-07-29T12:00:28;27.40;99.90
23783;DHT22;12071;50.850;4.446;2022-07-29T12:02:56;27.50;99.90
23783;DHT22;12071;50.850;4.446;2022-07-29T12:05:51;27.40;99.90
23783;DHT22;12071;50.850;4.446;2022-07-29T12:08:20;27.50;99.90
23783;DHT22;12071;50.850;4.446;2022-07-29T12:10:48;27.20;99.90
23783;DHT22;12071;50.850;4.446;2022-07-29T12:13:20;27.30;99.90
23783;DHT22;12071;50.850;4.446;2022-07-29T12:15:52;27.60;81.80
23783;DHT22;12071;50.850;4.446;2022-07-29T12:18:20;27.20;92.20
23783;DHT22;12071;50.850;4.446;2022-07-29T12:20:47;26.80;99.90
23783;DHT22;12071;50.850;4.446;2022-07-29T12:23:14;27.10;99.90
23783;DHT22;12071;50.850;4.446;2022-07-29T12:25:41;27.60;99.90
23783;DHT22;12071;50.850;4.446;2022-07-29T12:28:11;27.90;98.30
23783;DHT22;12071;50.850;4.446;2022-07-29T12:30:48;28.40;54.00
23783;DHT22;12071;50.850;4.446;2022-07-29T12:33:26;28.50;99.90
23783;DHT22;12071;50.850;4.446;2022-07-29T12:36:00;28.50;46.80
23783;DHT22;12071;50.850;4.446;2022-07-29T12:38:27;28.40;18.00
23783;DHT22;12071;50.850;4.446;2022-07-29T12:40:53;28.30;77.80
23783;DHT22;12071;50.850;4.446;2022-07-29T12:43:24;28.40;49.00
23783;DHT22;12071;50.850;4.446;2022-07-29T12:45:52;28.80;53.50
23783;DHT22;12071;50.850;4.446;2022-07-29T12:48:35;28.80;31.90
23783;DHT22;12071;50.850;4.446;2022-07-29T12:51:03;28.40;73.30
23783;DHT22;12071;50.850;4.446;2022-07-29T12:53:29;28.70;30.60
23783;DHT22;12071;50.850;4.446;2022-07-29T12:55:56;28.80;17.00
23783;DHT22;12071;50.850;4.446;2022-07-29T13:01:19;28.30;78.20
23783;DHT22;12071;50.850;4.446;2022-07-29T13:03:53;28.30;5.30
23783;DHT22;12071;50.850;4.446;2022-07-29T13:11:40;27.60;99.90
23783;DHT22;12071;50.850;4.446;2022-07-29T13:14:11;28.00;66.00
23783;DHT22;12071;50.850;4.446;2022-07-29T13:19:42;28.40;38.00
23783;DHT22;12071;50.850;4.446;2022-07-29T13:22:18;28.50;23.50
23783;DHT22;12071;50.850;4.446;2022-07-29T13:27:16;28.40;8.70
23783;DHT22;12071;50.850;4.446;2022-07-29T13:29:42;28.10;10.30
23783;DHT22;12071;50.850;4.446;2022-07-29T13:32:09;27.90;29.50
23783;DHT22;12071;50.850;4.446;2022-07-29T13:34:34;27.20;22.10
23783;DHT22;12071;50.850;4.446;2022-07-29T13:37:02;27.00;37.80
23783;DHT22;12071;50.850;4.446;2022-07-29T13:39:28;27.00;99.90
23783;DHT22;12071;50.850;4.446;2022-07-29T13:41:53;27.30;47.40
23783;DHT22;12071;50.850;4.446;2022-07-29T13:44:19;27.70;34.30
23783;DHT22;12071;50.850;4.446;2022-07-29T13:46:45;27.90;20.80
23783;DHT22;12071;50.850;4.446;2022-07-29T13:49:10;28.00;17.20
23783;DHT22;12071;50.850;4.446;2022-07-29T13:51:37;27.90;70.90
23783;DHT22;12071;50.850;4.446;2022-07-29T13:54:03;27.20;99.90
23783;DHT22;12071;50.850;4.446;2022-07-29T13:56:28;27.00;99.90
23783;DHT22;12071;50.850;4.446;2022-07-29T13:58:54;27.50;99.90
23783;DHT22;12071;50.850;4.446;2022-07-29T14:01:19;27.80;83.30
23783;DHT22;12071;50.850;4.446;2022-07-29T14:03:45;28.30;66.00
23783;DHT22;12071;50.850;4.446;2022-07-29T14:06:11;29.10;11.30
23783;DHT22;12071;50.850;4.446;2022-07-29T14:08:36;30.70;1.00
23783;DHT22;12071;50.850;4.446;2022-07-29T14:11:02;32.20;1.00
23783;DHT22;12071;50.850;4.446;2022-07-29T14:13:27;33.20;1.00
23783;DHT22;12071;50.850;4.446;2022-07-29T14:15:53;34.50;1.00
23783;DHT22;12071;50.850;4.446;2022-07-29T14:18:19;33.70;1.00
23783;DHT22;12071;50.850;4.446;2022-07-29T14:20:44;35.80;1.00
23783;DHT22;12071;50.850;4.446;2022-07-29T14:23:10;34.60;1.00
23783;DHT22;12071;50.850;4.446;2022-07-29T14:25:36;34.10;1.00
23783;DHT22;12071;50.850;4.446;2022-07-29T14:28:01;33.30;1.00
23783;DHT22;12071;50.850;4.446;2022-07-29T14:30:27;33.60;1.00
23783;DHT22;12071;50.850;4.446;2022-07-29T14:32:52;33.80;1.00
23783;DHT22;12071;50.850;4.446;2022-07-29T14:35:18;33.70;1.00
23783;DHT22;12071;50.850;4.446;2022-07-29T14:37:43;33.90;1.00
23783;DHT22;12071;50.850;4.446;2022-07-29T14:40:10;32.60;1.00
23783;DHT22;12071;50.850;4.446;2022-07-29T14:42:36;32.30;1.00
23783;DHT22;12071;50.850;4.446;2022-07-29T14:45:06;30.90;1.00
23783;DHT22;12071;50.850;4.446;2022-07-29T14:47:32;30.60;1.00
23783;DHT22;12071;50.850;4.446;2022-07-29T14:49:58;32.40;1.00
23783;DHT22;12071;50.850;4.446;2022-07-29T14:52:23;33.80;1.00
23783;DHT22;12071;50.850;4.446;2022-07-29T14:54:49;34.60;1.00
23783;DHT22;12071;50.850;4.446;2022-07-29T14:57:14;34.30;1.00
23783;DHT22;12071;50.850;4.446;2022-07-29T14:59:40;34.20;1.00
23783;DHT22;12071;50.850;4.446;2022-07-29T15:02:06;32.70;1.00
23783;DHT22;12071;50.850;4.446;2022-07-29T15:04:31;31.20;1.00
23783;DHT22;12071;50.850;4.446;2022-07-29T15:06:57;30.50;1.00
23783;DHT22;12071;50.850;4.446;2022-07-29T15:09:23;30.60;1.00
23783;DHT22;12071;50.850;4.446;2022-07-29T15:11:49;31.30;1.00
23783;DHT22;12071;50.850;4.446;2022-07-29T15:14:14;31.00;1.00
23783;DHT22;12071;50.850;4.446;2022-07-29T15:16:40;31.30;1.00
23783;DHT22;12071;50.850;4.446;2022-07-29T15:19:08;31.20;1.00
23783;DHT22;12071;50.850;4.446;2022-07-29T15:21:34;31.70;1.00
23783;DHT22;12071;50.850;4.446;2022-07-29T15:24:00;33.70;1.00
23783;DHT22;12071;50.850;4.446;2022-07-29T15:26:25;35.80;1.00
23783;DHT22;12071;50.850;4.446;2022-07-29T15:28:51;35.30;1.00
23783;DHT22;12071;50.850;4.446;2022-07-29T15:31:17;34.50;1.00
23783;DHT22;12071;50.850;4.446;2022-07-29T15:33:44;35.10;1.00
23783;DHT22;12071;50.850;4.446;2022-07-29T15:36:11;36.30;1.00
23783;DHT22;12071;50.850;4.446;2022-07-29T15:38:38;36.00;1.00
23783;DHT22;12071;50.850;4.446;2022-07-29T15:41:08;35.10;1.00
23783;DHT22;12071;50.850;4.446;2022-07-29T15:43:34;35.60;1.00
23783;DHT22;12071;50.850;4.446;2022-07-29T15:46:01;36.00;1.00
23783;DHT22;12071;50.850;4.446;2022-07-29T15:48:45;36.90;1.00
23783;DHT22;12071;50.850;4.446;2022-07-29T15:51:11;35.40;1.00
23783;DHT22;12071;50.850;4.446;2022-07-29T15:53:37;35.80;1.00
23783;DHT22;12071;50.850;4.446;2022-07-29T15:56:03;35.90;1.00
23783;DHT22;12071;50.850;4.446;2022-07-29T15:58:29;36.40;1.00
23783;DHT22;12071;50.850;4.446;2022-07-29T16:00:54;36.30;1.00
23783;DHT22;12071;50.850;4.446;2022-07-29T16:03:20;37.00;1.00
23783;DHT22;12071;50.850;4.446;2022-07-29T16:05:47;36.70;1.00
23783;DHT22;12071;50.850;4.446;2022-07-29T16:08:13;37.50;1.00
23783;DHT22;12071;50.850;4.446;2022-07-29T16:10:38;38.20;1.00
23783;DHT22;12071;50.850;4.446;2022-07-29T16:13:04;37.70;1.00
23783;DHT22;12071;50.850;4.446;2022-07-29T16:15:30;36.40;1.00
23783;DHT22;12071;50.850;4.446;2022-07-29T16:17:55;36.80;1.00
23783;DHT22;12071;50.850;4.446;2022-07-29T16:20:21;37.90;1.00
23783;DHT22;12071;50.850;4.446;2022-07-29T16:22:47;37.80;1.00
23783;DHT22;12071;50.850;4.446;2022-07-29T16:25:12;37.10;1.00
23783;DHT22;12071;50.850;4.446;2022-07-29T16:27:38;37.40;1.00
23783;DHT22;12071;50.850;4.446;2022-07-29T16:30:05;38.20;1.00
23783;DHT22;12071;50.850;4.446;2022-07-29T16:32:32;38.50;1.00
23783;DHT22;12071;50.850;4.446;2022-07-29T16:34:57;38.40;1.00
23783;DHT22;12071;50.850;4.446;2022-07-29T16:37:26;36.90;1.00
23783;DHT22;12071;50.850;4.446;2022-07-29T16:39:57;35.40;1.00
23783;DHT22;12071;50.850;4.446;2022-07-29T16:42:23;33.60;1.00
23783;DHT22;12071;50.850;4.446;2022-07-29T16:44:48;32.40;1.00
23783;DHT22;12071;50.850;4.446;2022-07-29T16:47:14;32.30;1.00
23783;DHT22;12071;50.850;4.446;2022-07-29T16:49:40;32.90;1.00